sensor_id;sensor_type;location;lat;lon;timestamp;P1;durP1;ratioP1;P2;durP2;ratioP2
50781;SDS011;36749;37.428;-121.972;2024-03-22T00:01:41;3.53;;;1.27;;
50781;SDS011;36749;37.428;-121.972;2024-03-22T00:04:07;2.05;;;1.00;;
50781;SDS011;36749;37.428;-121.972;2024-03-22T00:06:34;5.20;;;1.30;;
50781;SDS011;36749;37.428;-121.972;2024-03-22T00:09:01;6.55;;;1.55;;
50781;SDS011;36749;37.428;-121.972;2024-03-22T00:11:28;6.20;;;1.60;;
50781;SDS011;36749;37.428;-121.972;2024-03-22T00:13:54;5.22;;;1.38;;
50781;SDS011;36749;37.428;-121.972;2024-03-22T00:16:21;4.70;;;1.48;;
50781;SDS011;36749;37.428;-121.972;2024-03-22T00:18:47;7.68;;;1.48;;
50781;SDS011;36749;37.428;-121.972;2024-03-22T00:21:14;2.80;;;1.10;;
50781;SDS011;36749;37.428;-121.972;2024-03-22T00:23:41;3.10;;;1.30;;
50781;SDS011;36749;37.428;-121.972;2024-03-22T00:26:08;3.75;;;1.00;;
50781;SDS011;36749;37.428;-121.972;2024-03-22T00:28:35;2.75;;;1.23;;
50781;SDS011;36749;37.428;-121.972;2024-03-22T00:31:01;15.32;;;2.63;;
50781;SDS011;36749;37.428;-121.972;2024-03-22T00:33:27;6.10;;;1.73;;
50781;SDS011;36749;37.428;-121.972;2024-03-22T00:35:53;3.78;;;1.13;;
50781;SDS011;36749;37.428;-121.972;2024-03-22T00:38:19;3.47;;;1.33;;
50781;SDS011;36749;37.428;-121.972;2024-03-22T00:40:46;5.63;;;1.50;;
50781;SDS011;36749;37.428;-121.972;2024-03-22T00:43:12;5.22;;;1.30;;
50781;SDS011;36749;37.428;-121.972;2024-03-22T00:45:38;5.60;;;1.45;;
50781;SDS011;36749;37.428;-121.972;2024-03-22T00:48:05;5.55;;;1.33;;
50781;SDS011;36749;37.428;-121.972;2024-03-22T00:50:31;1.60;;;1.50;;
50781;SDS011;36749;37.428;-121.972;2024-03-22T00:52:57;2.85;;;1.20;;
50781;SDS011;36749;37.428;-121.972;2024-03-22T00:55:24;7.80;;;1.55;;
50781;SDS011;36749;37.428;-121.972;2024-03-22T00:57:50;33.55;;;17.27;;
50781;SDS011;36749;37.428;-121.972;2024-03-22T01:00:17;11.63;;;4.68;;
50781;SDS011;36749;37.428;-121.972;2024-03-22T01:02:43;6.68;;;4.22;;
50781;SDS011;36749;37.428;-121.972;2024-03-22T01:05:10;5.20;;;1.60;;
50781;SDS011;36749;37.428;-121.972;2024-03-22T01:07:36;6.35;;;1.50;;
50781;SDS011;36749;37.428;-121.972;2024-03-22T01:10:03;2.22;;;1.08;;
50781;SDS011;36749;37.428;-121.972;2024-03-22T01:12:30;3.10;;;1.30;;
50781;SDS011;36749;37.428;-121.972;2024-03-22T01:14:56;2.78;;;1.25;;
50781;SDS011;36749;37.428;-121.972;2024-03-22T01:17:23;2.88;;;1.35;;
50781;SDS011;36749;37.428;-121.972;2024-03-22T01:19:49;5.22;;;1.45;;
50781;SDS011;36749;37.428;-121.972;2024-03-22T01:22:17;2.22;;;0.98;;
50781;SDS011;36749;37.428;-121.972;2024-03-22T01:24:44;1.65;;;0.95;;
50781;SDS011;36749;37.428;-121.972;2024-03-22T01:27:10;12.02;;;1.77;;
50781;SDS011;36749;37.428;-121.972;2024-03-22T01:29:37;7.15;;;1.23;;
50781;SDS011;36749;37.428;-121.972;2024-03-22T01:32:03;7.75;;;1.65;;
50781;SDS011;36749;37.428;-121.972;2024-03-22T01:34:30;25.63;;;5.40;;
50781;SDS011;36749;37.428;-121.972;2024-03-22T01:36:56;3.28;;;1.40;;
50781;SDS011;36749;37.428;-121.972;2024-03-22T01:39:22;6.32;;;1.15;;
50781;SDS011;36749;37.428;-121.972;2024-03-22T01:41:49;5.15;;;1.50;;
50781;SDS011;36749;37.428;-121.972;2024-03-22T01:44:15;3.17;;;1.13;;
50781;SDS011;36749;37.428;-121.972;2024-03-22T01:46:42;3.80;;;1.48;;
50781;SDS011;36749;37.428;-121.972;2024-03-22T01:49:10;4.15;;;1.17;;
50781;SDS011;36749;37.428;-121.972;2024-03-22T01:51:41;7.13;;;1.52;;
50781;SDS011;36749;37.428;-121.972;2024-03-22T01:54:08;7.10;;;1.50;;
50781;SDS011;36749;37.428;-121.972;2024-03-22T01:56:38;7.70;;;1.67;;
50781;SDS011;36749;37.428;-121.972;2024-03-22T01:59:06;4.38;;;1.42;;
50781;SDS011;36749;37.428;-121.972;2024-03-22T02:01:33;1.55;;;1.13;;
50781;SDS011;36749;37.428;-121.972;2024-03-22T02:03:59;3.95;;;1.20;;
50781;SDS011;36749;37.428;-121.972;2024-03-22T02:06:26;19.02;;;2.42;;
50781;SDS011;36749;37.428;-121.972;2024-03-22T02:08:52;9.13;;;2.22;;
50781;SDS011;36749;37.428;-121.972;2024-03-22T02:11:18;4.40;;;1.20;;
50781;SDS011;36749;37.428;-121.972;2024-03-22T02:13:45;4.50;;;1.45;;
50781;SDS011;36749;37.428;-121.972;2024-03-22T02:16:11;3.67;;;1.50;;
50781;SDS011;36749;37.428;-121.972;2024-03-22T02:18:38;2.97;;;1.23;;
50781;SDS011;36749;37.428;-121.972;2024-03-22T02:21:04;6.95;;;1.65;;
50781;SDS011;36749;37.428;-121.972;2024-03-22T02:26:00;3.97;;;1.30;;
50781;SDS011;36749;37.428;-121.972;2024-03-22T02:28:27;4.85;;;1.48;;
50781;SDS011;36749;37.428;-121.972;2024-03-22T02:33:37;5.32;;;1.33;;
50781;SDS011;36749;37.428;-121.972;2024-03-22T02:36:04;6.82;;;1.30;;
50781;SDS011;36749;37.428;-121.972;2024-03-22T02:38:31;7.00;;;1.83;;
50781;SDS011;36749;37.428;-121.972;2024-03-22T02:40:57;4.47;;;1.75;;
50781;SDS011;36749;37.428;-121.972;2024-03-22T02:43:24;5.60;;;1.38;;
50781;SDS011;36749;37.428;-121.972;2024-03-22T02:45:50;2.22;;;1.10;;
50781;SDS011;36749;37.428;-121.972;2024-03-22T02:48:16;5.82;;;1.40;;
50781;SDS011;36749;37.428;-121.972;2024-03-22T02:50:42;3.95;;;1.13;;
50781;SDS011;36749;37.428;-121.972;2024-03-22T02:53:09;6.40;;;1.83;;
50781;SDS011;36749;37.428;-121.972;2024-03-22T02:55:39;8.05;;;1.75;;
50781;SDS011;36749;37.428;-121.972;2024-03-22T02:58:06;3.90;;;1.50;;
50781;SDS011;36749;37.428;-121.972;2024-03-22T03:00:36;4.55;;;1.70;;
50781;SDS011;36749;37.428;-121.972;2024-03-22T03:03:04;2.20;;;1.13;;
50781;SDS011;36749;37.428;-121.972;2024-03-22T03:05:30;1.95;;;1.20;;
50781;SDS011;36749;37.428;-121.972;2024-03-22T03:07:57;7.15;;;1.85;;
50781;SDS011;36749;37.428;-121.972;2024-03-22T03:10:23;5.55;;;1.40;;
50781;SDS011;36749;37.428;-121.972;2024-03-22T03:12:53;2.88;;;1.52;;
50781;SDS011;36749;37.428;-121.972;2024-03-22T03:15:20;2.20;;;1.30;;
50781;SDS011;36749;37.428;-121.972;2024-03-22T03:17:46;5.28;;;1.60;;
50781;SDS011;36749;37.428;-121.972;2024-03-22T03:20:12;1.55;;;1.33;;
50781;SDS011;36749;37.428;-121.972;2024-03-22T03:22:42;3.22;;;1.15;;
50781;SDS011;36749;37.428;-121.972;2024-03-22T03:25:08;8.13;;;1.40;;
50781;SDS011;36749;37.428;-121.972;2024-03-22T03:27:34;2.30;;;1.00;;
50781;SDS011;36749;37.428;-121.972;2024-03-22T03:30:01;3.90;;;1.33;;
50781;SDS011;36749;37.428;-121.972;2024-03-22T03:32:27;5.25;;;1.45;;
50781;SDS011;36749;37.428;-121.972;2024-03-22T03:34:54;1.60;;;1.08;;
50781;SDS011;36749;37.428;-121.972;2024-03-22T03:37:20;2.53;;;1.35;;
50781;SDS011;36749;37.428;-121.972;2024-03-22T03:39:46;4.20;;;1.52;;
50781;SDS011;36749;37.428;-121.972;2024-03-22T03:42:13;5.22;;;1.55;;
50781;SDS011;36749;37.428;-121.972;2024-03-22T03:44:39;4.85;;;1.63;;
50781;SDS011;36749;37.428;-121.972;2024-03-22T03:47:26;3.20;;;1.45;;
50781;SDS011;36749;37.428;-121.972;2024-03-22T03:49:52;14.57;;;2.20;;
50781;SDS011;36749;37.428;-121.972;2024-03-22T03:52:18;1.75;;;1.20;;
50781;SDS011;36749;37.428;-121.972;2024-03-22T03:54:44;5.68;;;1.42;;
50781;SDS011;36749;37.428;-121.972;2024-03-22T03:57:10;3.13;;;1.50;;
50781;SDS011;36749;37.428;-121.972;2024-03-22T03:59:37;2.60;;;1.40;;
50781;SDS011;36749;37.428;-121.972;2024-03-22T04:02:03;1.55;;;1.23;;
50781;SDS011;36749;37.428;-121.972;2024-03-22T04:04:29;4.13;;;1.67;;
50781;SDS011;36749;37.428;-121.972;2024-03-22T04:06:56;2.20;;;1.23;;
50781;SDS011;36749;37.428;-121.972;2024-03-22T04:09:22;4.78;;;1.60;;
50781;SDS011;36749;37.428;-121.972;2024-03-22T04:11:48;3.35;;;1.52;;
50781;SDS011;36749;37.428;-121.972;2024-03-22T04:14:14;2.55;;;1.50;;
50781;SDS011;36749;37.428;-121.972;2024-03-22T04:16:40;3.22;;;1.52;;
50781;SDS011;36749;37.428;-121.972;2024-03-22T04:19:06;3.55;;;1.20;;
50781;SDS011;36749;37.428;-121.972;2024-03-22T04:21:33;4.22;;;1.50;;
50781;SDS011;36749;37.428;-121.972;2024-03-22T04:23:59;3.72;;;1.80;;
50781;SDS011;36749;37.428;-121.972;2024-03-22T04:26:25;2.45;;;1.60;;
50781;SDS011;36749;37.428;-121.972;2024-03-22T04:28:51;5.82;;;1.90;;
50781;SDS011;36749;37.428;-121.972;2024-03-22T04:31:17;5.20;;;1.58;;
50781;SDS011;36749;37.428;-121.972;2024-03-22T04:33:44;6.82;;;1.73;;
50781;SDS011;36749;37.428;-121.972;2024-03-22T04:36:10;6.43;;;1.90;;
50781;SDS011;36749;37.428;-121.972;2024-03-22T04:38:36;7.82;;;2.58;;
50781;SDS011;36749;37.428;-121.972;2024-03-22T04:41:02;4.05;;;1.70;;
50781;SDS011;36749;37.428;-121.972;2024-03-22T04:43:29;3.95;;;1.88;;
50781;SDS011;36749;37.428;-121.972;2024-03-22T04:45:55;4.97;;;1.70;;
50781;SDS011;36749;37.428;-121.972;2024-03-22T04:48:21;5.40;;;1.95;;
50781;SDS011;36749;37.428;-121.972;2024-03-22T04:50:51;8.63;;;2.10;;
50781;SDS011;36749;37.428;-121.972;2024-03-22T04:53:21;5.70;;;1.80;;
50781;SDS011;36749;37.428;-121.972;2024-03-22T04:55:47;6.63;;;2.20;;
50781;SDS011;36749;37.428;-121.972;2024-03-22T04:58:14;5.40;;;2.00;;
50781;SDS011;36749;37.428;-121.972;2024-03-22T05:00:42;5.50;;;1.70;;
50781;SDS011;36749;37.428;-121.972;2024-03-22T05:03:08;6.30;;;2.40;;
50781;SDS011;36749;37.428;-121.972;2024-03-22T05:05:35;2.95;;;1.67;;
50781;SDS011;36749;37.428;-121.972;2024-03-22T05:08:01;3.45;;;1.90;;
50781;SDS011;36749;37.428;-121.972;2024-03-22T05:10:28;3.80;;;2.05;;
50781;SDS011;36749;37.428;-121.972;2024-03-22T05:12:55;3.80;;;2.08;;
50781;SDS011;36749;37.428;-121.972;2024-03-22T05:15:21;5.88;;;2.00;;
50781;SDS011;36749;37.428;-121.972;2024-03-22T05:17:48;2.85;;;1.77;;
50781;SDS011;36749;37.428;-121.972;2024-03-22T05:20:14;5.57;;;1.80;;
50781;SDS011;36749;37.428;-121.972;2024-03-22T05:22:41;2.85;;;1.63;;
50781;SDS011;36749;37.428;-121.972;2024-03-22T05:25:08;4.30;;;2.15;;
50781;SDS011;36749;37.428;-121.972;2024-03-22T05:27:35;4.18;;;2.03;;
50781;SDS011;36749;37.428;-121.972;2024-03-22T05:30:02;6.45;;;2.17;;
50781;SDS011;36749;37.428;-121.972;2024-03-22T05:32:31;4.05;;;2.13;;
50781;SDS011;36749;37.428;-121.972;2024-03-22T05:34:57;7.38;;;2.30;;
50781;SDS011;36749;37.428;-121.972;2024-03-22T05:37:24;3.92;;;2.00;;
50781;SDS011;36749;37.428;-121.972;2024-03-22T05:39:50;5.93;;;1.90;;
50781;SDS011;36749;37.428;-121.972;2024-03-22T05:42:16;4.78;;;2.10;;
50781;SDS011;36749;37.428;-121.972;2024-03-22T05:44:43;4.13;;;1.90;;
50781;SDS011;36749;37.428;-121.972;2024-03-22T05:47:10;5.53;;;1.83;;
50781;SDS011;36749;37.428;-121.972;2024-03-22T05:49:36;5.60;;;2.00;;
50781;SDS011;36749;37.428;-121.972;2024-03-22T05:52:02;4.63;;;1.73;;
50781;SDS011;36749;37.428;-121.972;2024-03-22T05:54:29;5.22;;;1.83;;
50781;SDS011;36749;37.428;-121.972;2024-03-22T05:56:55;6.72;;;2.10;;
50781;SDS011;36749;37.428;-121.972;2024-03-22T05:59:21;5.82;;;1.75;;
50781;SDS011;36749;37.428;-121.972;2024-03-22T06:01:48;4.43;;;2.47;;
50781;SDS011;36749;37.428;-121.972;2024-03-22T06:04:14;5.97;;;2.83;;
50781;SDS011;36749;37.428;-121.972;2024-03-22T06:06:40;4.97;;;2.10;;
50781;SDS011;36749;37.428;-121.972;2024-03-22T06:09:06;4.93;;;1.90;;
50781;SDS011;36749;37.428;-121.972;2024-03-22T06:11:36;5.00;;;2.08;;
50781;SDS011;36749;37.428;-121.972;2024-03-22T06:14:03;4.85;;;2.10;;
50781;SDS011;36749;37.428;-121.972;2024-03-22T06:16:29;4.55;;;1.95;;
50781;SDS011;36749;37.428;-121.972;2024-03-22T06:18:55;2.20;;;1.70;;
50781;SDS011;36749;37.428;-121.972;2024-03-22T06:21:21;4.50;;;1.90;;
50781;SDS011;36749;37.428;-121.972;2024-03-22T06:23:50;5.78;;;2.28;;
50781;SDS011;36749;37.428;-121.972;2024-03-22T06:26:17;3.92;;;2.10;;
50781;SDS011;36749;37.428;-121.972;2024-03-22T06:28:43;5.85;;;2.40;;
50781;SDS011;36749;37.428;-121.972;2024-03-22T06:31:10;4.15;;;2.25;;
50781;SDS011;36749;37.428;-121.972;2024-03-22T06:33:36;6.75;;;2.20;;
50781;SDS011;36749;37.428;-121.972;2024-03-22T06:36:02;6.55;;;2.47;;
50781;SDS011;36749;37.428;-121.972;2024-03-22T06:38:28;5.30;;;1.70;;
50781;SDS011;36749;37.428;-121.972;2024-03-22T06:40:55;5.50;;;2.05;;
50781;SDS011;36749;37.428;-121.972;2024-03-22T06:43:21;3.50;;;1.92;;
50781;SDS011;36749;37.428;-121.972;2024-03-22T06:45:47;6.03;;;1.95;;
50781;SDS011;36749;37.428;-121.972;2024-03-22T06:48:13;6.47;;;2.17;;
50781;SDS011;36749;37.428;-121.972;2024-03-22T06:50:42;6.65;;;1.90;;
50781;SDS011;36749;37.428;-121.972;2024-03-22T06:53:08;2.67;;;1.42;;
50781;SDS011;36749;37.428;-121.972;2024-03-22T06:55:37;3.97;;;1.73;;
50781;SDS011;36749;37.428;-121.972;2024-03-22T06:58:04;4.70;;;1.88;;
50781;SDS011;36749;37.428;-121.972;2024-03-22T07:00:30;6.20;;;1.90;;
50781;SDS011;36749;37.428;-121.972;2024-03-22T07:03:00;5.80;;;2.38;;
50781;SDS011;36749;37.428;-121.972;2024-03-22T07:05:27;4.97;;;1.95;;
50781;SDS011;36749;37.428;-121.972;2024-03-22T07:07:54;4.47;;;2.20;;
50781;SDS011;36749;37.428;-121.972;2024-03-22T07:10:23;2.88;;;1.80;;
50781;SDS011;36749;37.428;-121.972;2024-03-22T07:12:53;3.50;;;1.60;;
50781;SDS011;36749;37.428;-121.972;2024-03-22T07:15:21;5.95;;;2.88;;
50781;SDS011;36749;37.428;-121.972;2024-03-22T07:17:48;5.00;;;2.30;;
50781;SDS011;36749;37.428;-121.972;2024-03-22T07:20:15;6.60;;;3.03;;
50781;SDS011;36749;37.428;-121.972;2024-03-22T07:22:41;7.65;;;3.70;;
50781;SDS011;36749;37.428;-121.972;2024-03-22T07:25:08;7.60;;;4.10;;
50781;SDS011;36749;37.428;-121.972;2024-03-22T07:27:36;9.27;;;3.75;;
50781;SDS011;36749;37.428;-121.972;2024-03-22T07:30:03;9.02;;;3.90;;
50781;SDS011;36749;37.428;-121.972;2024-03-22T07:32:30;6.07;;;4.10;;
50781;SDS011;36749;37.428;-121.972;2024-03-22T07:34:57;9.30;;;4.10;;
50781;SDS011;36749;37.428;-121.972;2024-03-22T07:37:23;6.60;;;3.22;;
50781;SDS011;36749;37.428;-121.972;2024-03-22T07:39:49;6.63;;;3.45;;
50781;SDS011;36749;37.428;-121.972;2024-03-22T07:42:16;10.50;;;3.60;;
50781;SDS011;36749;37.428;-121.972;2024-03-22T07:44:42;6.50;;;2.90;;
50781;SDS011;36749;37.428;-121.972;2024-03-22T07:47:08;4.70;;;2.70;;
50781;SDS011;36749;37.428;-121.972;2024-03-22T07:49:35;4.97;;;2.78;;
50781;SDS011;36749;37.428;-121.972;2024-03-22T07:52:02;6.13;;;2.65;;
50781;SDS011;36749;37.428;-121.972;2024-03-22T07:54:28;5.40;;;2.47;;
50781;SDS011;36749;37.428;-121.972;2024-03-22T07:56:54;6.18;;;3.03;;
50781;SDS011;36749;37.428;-121.972;2024-03-22T07:59:20;7.05;;;3.10;;
50781;SDS011;36749;37.428;-121.972;2024-03-22T08:01:46;7.78;;;3.40;;
50781;SDS011;36749;37.428;-121.972;2024-03-22T08:04:13;5.35;;;2.83;;
50781;SDS011;36749;37.428;-121.972;2024-03-22T08:06:40;4.80;;;2.80;;
50781;SDS011;36749;37.428;-121.972;2024-03-22T08:09:06;7.15;;;3.08;;
50781;SDS011;36749;37.428;-121.972;2024-03-22T08:11:33;7.05;;;3.25;;
50781;SDS011;36749;37.428;-121.972;2024-03-22T08:13:59;6.03;;;3.05;;
50781;SDS011;36749;37.428;-121.972;2024-03-22T08:16:29;4.95;;;3.22;;
50781;SDS011;36749;37.428;-121.972;2024-03-22T08:18:55;7.38;;;3.15;;
50781;SDS011;36749;37.428;-121.972;2024-03-22T08:21:22;6.65;;;3.40;;
50781;SDS011;36749;37.428;-121.972;2024-03-22T08:23:49;5.53;;;3.28;;
50781;SDS011;36749;37.428;-121.972;2024-03-22T08:26:16;4.97;;;3.00;;
50781;SDS011;36749;37.428;-121.972;2024-03-22T08:28:42;5.97;;;2.72;;
50781;SDS011;36749;37.428;-121.972;2024-03-22T08:31:09;4.57;;;2.97;;
50781;SDS011;36749;37.428;-121.972;2024-03-22T08:33:35;7.78;;;3.42;;
50781;SDS011;36749;37.428;-121.972;2024-03-22T08:36:02;9.32;;;3.03;;
50781;SDS011;36749;37.428;-121.972;2024-03-22T08:38:28;7.65;;;3.03;;
50781;SDS011;36749;37.428;-121.972;2024-03-22T08:40:54;5.07;;;3.15;;
50781;SDS011;36749;37.428;-121.972;2024-03-22T08:43:21;7.40;;;2.80;;
50781;SDS011;36749;37.428;-121.972;2024-03-22T08:45:54;6.10;;;3.20;;
50781;SDS011;36749;37.428;-121.972;2024-03-22T08:48:21;6.65;;;3.13;;
50781;SDS011;36749;37.428;-121.972;2024-03-22T08:50:47;6.18;;;3.33;;
50781;SDS011;36749;37.428;-121.972;2024-03-22T08:53:14;3.67;;;2.70;;
50781;SDS011;36749;37.428;-121.972;2024-03-22T08:55:46;7.65;;;3.72;;
50781;SDS011;36749;37.428;-121.972;2024-03-22T08:58:14;7.43;;;3.13;;
50781;SDS011;36749;37.428;-121.972;2024-03-22T09:00:43;7.43;;;3.13;;
50781;SDS011;36749;37.428;-121.972;2024-03-22T09:03:10;7.47;;;3.17;;
50781;SDS011;36749;37.428;-121.972;2024-03-22T09:05:36;5.75;;;3.42;;
50781;SDS011;36749;37.428;-121.972;2024-03-22T09:08:02;5.18;;;3.53;;
50781;SDS011;36749;37.428;-121.972;2024-03-22T09:10:29;9.98;;;3.72;;
50781;SDS011;36749;37.428;-121.972;2024-03-22T09:12:55;5.97;;;3.40;;
50781;SDS011;36749;37.428;-121.972;2024-03-22T09:15:22;9.27;;;3.92;;
50781;SDS011;36749;37.428;-121.972;2024-03-22T09:17:48;7.13;;;3.65;;
50781;SDS011;36749;37.428;-121.972;2024-03-22T09:20:15;5.47;;;3.30;;
50781;SDS011;36749;37.428;-121.972;2024-03-22T09:22:41;4.78;;;3.60;;
50781;SDS011;36749;37.428;-121.972;2024-03-22T09:25:07;7.20;;;3.63;;
50781;SDS011;36749;37.428;-121.972;2024-03-22T09:27:34;7.28;;;3.10;;
50781;SDS011;36749;37.428;-121.972;2024-03-22T09:30:00;8.43;;;4.38;;
50781;SDS011;36749;37.428;-121.972;2024-03-22T09:32:26;7.28;;;3.78;;
50781;SDS011;36749;37.428;-121.972;2024-03-22T09:34:53;8.80;;;3.80;;
50781;SDS011;36749;37.428;-121.972;2024-03-22T09:37:19;6.43;;;3.90;;
50781;SDS011;36749;37.428;-121.972;2024-03-22T09:39:45;8.40;;;3.78;;
50781;SDS011;36749;37.428;-121.972;2024-03-22T09:42:17;6.05;;;3.30;;
50781;SDS011;36749;37.428;-121.972;2024-03-22T09:44:47;10.55;;;3.60;;
50781;SDS011;36749;37.428;-121.972;2024-03-22T09:47:16;7.03;;;4.10;;
50781;SDS011;36749;37.428;-121.972;2024-03-22T09:49:45;5.90;;;3.63;;
50781;SDS011;36749;37.428;-121.972;2024-03-22T09:52:14;7.38;;;4.00;;
50781;SDS011;36749;37.428;-121.972;2024-03-22T09:54:43;5.43;;;3.40;;
50781;SDS011;36749;37.428;-121.972;2024-03-22T09:57:13;5.20;;;3.17;;
50781;SDS011;36749;37.428;-121.972;2024-03-22T09:59:44;4.40;;;3.33;;
50781;SDS011;36749;37.428;-121.972;2024-03-22T10:02:11;4.90;;;3.33;;
50781;SDS011;36749;37.428;-121.972;2024-03-22T10:04:38;9.23;;;3.67;;
50781;SDS011;36749;37.428;-121.972;2024-03-22T10:07:05;7.35;;;3.45;;
50781;SDS011;36749;37.428;-121.972;2024-03-22T10:09:33;5.88;;;3.35;;
50781;SDS011;36749;37.428;-121.972;2024-03-22T10:12:00;8.25;;;3.83;;
50781;SDS011;36749;37.428;-121.972;2024-03-22T10:14:26;6.70;;;3.85;;
50781;SDS011;36749;37.428;-121.972;2024-03-22T10:16:55;9.60;;;4.18;;
50781;SDS011;36749;37.428;-121.972;2024-03-22T10:19:22;6.50;;;4.18;;
50781;SDS011;36749;37.428;-121.972;2024-03-22T10:22:04;5.95;;;4.10;;
50781;SDS011;36749;37.428;-121.972;2024-03-22T10:24:33;9.70;;;4.80;;
50781;SDS011;36749;37.428;-121.972;2024-03-22T10:26:59;7.30;;;4.05;;
50781;SDS011;36749;37.428;-121.972;2024-03-22T10:29:26;6.15;;;4.03;;
50781;SDS011;36749;37.428;-121.972;2024-03-22T10:31:53;7.70;;;4.10;;
50781;SDS011;36749;37.428;-121.972;2024-03-22T10:34:22;6.00;;;3.47;;
50781;SDS011;36749;37.428;-121.972;2024-03-22T10:36:50;8.23;;;4.47;;
50781;SDS011;36749;37.428;-121.972;2024-03-22T10:39:17;8.23;;;4.35;;
50781;SDS011;36749;37.428;-121.972;2024-03-22T10:41:46;7.97;;;4.47;;
50781;SDS011;36749;37.428;-121.972;2024-03-22T10:44:13;9.77;;;4.60;;
50781;SDS011;36749;37.428;-121.972;2024-03-22T10:46:43;8.02;;;4.60;;
50781;SDS011;36749;37.428;-121.972;2024-03-22T10:49:19;11.05;;;4.25;;
50781;SDS011;36749;37.428;-121.972;2024-03-22T10:51:46;10.13;;;4.50;;
50781;SDS011;36749;37.428;-121.972;2024-03-22T10:54:19;9.90;;;4.38;;
50781;SDS011;36749;37.428;-121.972;2024-03-22T10:56:50;7.00;;;4.07;;
50781;SDS011;36749;37.428;-121.972;2024-03-22T10:59:21;10.23;;;4.50;;
50781;SDS011;36749;37.428;-121.972;2024-03-22T11:01:49;6.57;;;3.97;;
50781;SDS011;36749;37.428;-121.972;2024-03-22T11:04:16;7.43;;;4.45;;
50781;SDS011;36749;37.428;-121.972;2024-03-22T11:06:49;8.02;;;3.85;;
50781;SDS011;36749;37.428;-121.972;2024-03-22T11:09:22;8.10;;;3.67;;
50781;SDS011;36749;37.428;-121.972;2024-03-22T11:11:52;5.82;;;3.63;;
50781;SDS011;36749;37.428;-121.972;2024-03-22T11:14:19;6.25;;;3.67;;
50781;SDS011;36749;37.428;-121.972;2024-03-22T11:16:48;7.35;;;3.35;;
50781;SDS011;36749;37.428;-121.972;2024-03-22T11:19:15;5.85;;;3.80;;
50781;SDS011;36749;37.428;-121.972;2024-03-22T11:21:41;8.95;;;3.67;;
50781;SDS011;36749;37.428;-121.972;2024-03-22T11:24:08;8.35;;;3.58;;
50781;SDS011;36749;37.428;-121.972;2024-03-22T11:26:35;6.65;;;3.88;;
50781;SDS011;36749;37.428;-121.972;2024-03-22T11:29:01;6.28;;;3.42;;
50781;SDS011;36749;37.428;-121.972;2024-03-22T11:31:27;5.72;;;3.45;;
50781;SDS011;36749;37.428;-121.972;2024-03-22T11:33:54;8.65;;;4.40;;
50781;SDS011;36749;37.428;-121.972;2024-03-22T11:36:20;8.48;;;3.70;;
50781;SDS011;36749;37.428;-121.972;2024-03-22T11:38:48;7.65;;;3.97;;
50781;SDS011;36749;37.428;-121.972;2024-03-22T11:41:20;9.48;;;4.05;;
50781;SDS011;36749;37.428;-121.972;2024-03-22T11:43:51;8.88;;;4.35;;
50781;SDS011;36749;37.428;-121.972;2024-03-22T11:46:18;6.00;;;3.40;;
50781;SDS011;36749;37.428;-121.972;2024-03-22T11:48:49;5.82;;;3.78;;
50781;SDS011;36749;37.428;-121.972;2024-03-22T11:51:17;10.57;;;3.95;;
50781;SDS011;36749;37.428;-121.972;2024-03-22T11:53:50;8.88;;;3.60;;
50781;SDS011;36749;37.428;-121.972;2024-03-22T11:56:21;9.70;;;3.70;;
50781;SDS011;36749;37.428;-121.972;2024-03-22T11:58:48;10.07;;;4.50;;
50781;SDS011;36749;37.428;-121.972;2024-03-22T12:01:15;6.07;;;3.35;;
50781;SDS011;36749;37.428;-121.972;2024-03-22T12:03:44;9.00;;;3.60;;
50781;SDS011;36749;37.428;-121.972;2024-03-22T12:06:12;9.52;;;3.80;;
50781;SDS011;36749;37.428;-121.972;2024-03-22T12:08:39;6.63;;;3.90;;
50781;SDS011;36749;37.428;-121.972;2024-03-22T12:11:06;8.57;;;3.90;;
50781;SDS011;36749;37.428;-121.972;2024-03-22T12:13:34;6.97;;;4.25;;
50781;SDS011;36749;37.428;-121.972;2024-03-22T12:16:00;7.20;;;4.35;;
50781;SDS011;36749;37.428;-121.972;2024-03-22T12:18:27;6.55;;;3.90;;
50781;SDS011;36749;37.428;-121.972;2024-03-22T12:20:53;7.13;;;3.95;;
50781;SDS011;36749;37.428;-121.972;2024-03-22T12:23:19;9.50;;;4.28;;
50781;SDS011;36749;37.428;-121.972;2024-03-22T12:25:46;9.02;;;4.47;;
50781;SDS011;36749;37.428;-121.972;2024-03-22T12:28:12;9.57;;;4.38;;
50781;SDS011;36749;37.428;-121.972;2024-03-22T12:30:39;9.73;;;4.00;;
50781;SDS011;36749;37.428;-121.972;2024-03-22T12:33:05;6.40;;;4.20;;
50781;SDS011;36749;37.428;-121.972;2024-03-22T12:35:36;7.78;;;4.13;;
50781;SDS011;36749;37.428;-121.972;2024-03-22T12:38:03;9.43;;;4.63;;
50781;SDS011;36749;37.428;-121.972;2024-03-22T12:40:30;7.20;;;4.07;;
50781;SDS011;36749;37.428;-121.972;2024-03-22T12:42:58;7.43;;;4.57;;
50781;SDS011;36749;37.428;-121.972;2024-03-22T12:45:24;9.57;;;4.50;;
50781;SDS011;36749;37.428;-121.972;2024-03-22T12:47:51;8.55;;;3.63;;
50781;SDS011;36749;37.428;-121.972;2024-03-22T12:50:17;6.10;;;3.78;;
50781;SDS011;36749;37.428;-121.972;2024-03-22T12:52:44;10.63;;;3.83;;
50781;SDS011;36749;37.428;-121.972;2024-03-22T12:55:10;10.32;;;3.78;;
50781;SDS011;36749;37.428;-121.972;2024-03-22T12:57:36;5.47;;;3.50;;
50781;SDS011;36749;37.428;-121.972;2024-03-22T13:00:03;4.70;;;2.70;;
50781;SDS011;36749;37.428;-121.972;2024-03-22T13:02:31;5.97;;;2.78;;
50781;SDS011;36749;37.428;-121.972;2024-03-22T13:04:58;9.70;;;2.70;;
50781;SDS011;36749;37.428;-121.972;2024-03-22T13:07:25;5.88;;;3.30;;
50781;SDS011;36749;37.428;-121.972;2024-03-22T13:09:52;6.65;;;2.90;;
50781;SDS011;36749;37.428;-121.972;2024-03-22T13:12:18;7.03;;;2.72;;
50781;SDS011;36749;37.428;-121.972;2024-03-22T13:14:44;5.93;;;2.83;;
50781;SDS011;36749;37.428;-121.972;2024-03-22T13:17:11;6.00;;;2.40;;
50781;SDS011;36749;37.428;-121.972;2024-03-22T13:19:37;6.50;;;2.50;;
50781;SDS011;36749;37.428;-121.972;2024-03-22T13:22:03;6.82;;;3.45;;
50781;SDS011;36749;37.428;-121.972;2024-03-22T13:24:30;6.82;;;2.92;;
50781;SDS011;36749;37.428;-121.972;2024-03-22T13:26:56;6.03;;;3.00;;
50781;SDS011;36749;37.428;-121.972;2024-03-22T13:29:22;4.93;;;2.55;;
50781;SDS011;36749;37.428;-121.972;2024-03-22T13:31:48;8.23;;;3.33;;
50781;SDS011;36749;37.428;-121.972;2024-03-22T13:34:14;4.35;;;2.80;;
50781;SDS011;36749;37.428;-121.972;2024-03-22T13:36:41;5.88;;;3.20;;
50781;SDS011;36749;37.428;-121.972;2024-03-22T13:39:07;7.45;;;3.30;;
50781;SDS011;36749;37.428;-121.972;2024-03-22T13:41:36;6.43;;;3.40;;
50781;SDS011;36749;37.428;-121.972;2024-03-22T13:44:02;5.90;;;3.78;;
50781;SDS011;36749;37.428;-121.972;2024-03-22T13:46:29;11.43;;;3.88;;
50781;SDS011;36749;37.428;-121.972;2024-03-22T13:48:55;7.28;;;3.40;;
50781;SDS011;36749;37.428;-121.972;2024-03-22T13:51:21;8.20;;;4.32;;
50781;SDS011;36749;37.428;-121.972;2024-03-22T13:53:47;9.57;;;4.45;;
50781;SDS011;36749;37.428;-121.972;2024-03-22T13:56:13;9.02;;;4.07;;
50781;SDS011;36749;37.428;-121.972;2024-03-22T13:58:40;12.00;;;3.75;;
50781;SDS011;36749;37.428;-121.972;2024-03-22T14:01:06;6.97;;;3.78;;
50781;SDS011;36749;37.428;-121.972;2024-03-22T14:03:32;7.60;;;3.60;;
50781;SDS011;36749;37.428;-121.972;2024-03-22T14:05:58;9.30;;;3.50;;
50781;SDS011;36749;37.428;-121.972;2024-03-22T14:08:24;9.32;;;3.40;;
50781;SDS011;36749;37.428;-121.972;2024-03-22T14:10:50;9.50;;;3.40;;
50781;SDS011;36749;37.428;-121.972;2024-03-22T14:13:17;7.50;;;3.63;;